sensor_id;sensor_type;location;lat;lon;timestamp;P1;durP1;ratioP1;P2;durP2;ratioP2
82787;SDS011;72529;51.786;4.662;2024-01-16T00:01:41;4.30;;;2.94;;
82787;SDS011;72529;51.786;4.662;2024-01-16T00:04:07;4.41;;;3.02;;
82787;SDS011;72529;51.786;4.662;2024-01-16T00:06:33;3.74;;;2.60;;
82787;SDS011;72529;51.786;4.662;2024-01-16T00:08:58;4.02;;;2.79;;
82787;SDS011;72529;51.786;4.662;2024-01-16T00:11:23;4.10;;;2.82;;
82787;SDS011;72529;51.786;4.662;2024-01-16T00:13:49;3.90;;;2.71;;
82787;SDS011;72529;51.786;4.662;2024-01-16T00:16:14;4.53;;;3.12;;
82787;SDS011;72529;51.786;4.662;2024-01-16T00:18:40;4.26;;;2.93;;
82787;SDS011;72529;51.786;4.662;2024-01-16T00:21:06;3.91;;;2.69;;
82787;SDS011;72529;51.786;4.662;2024-01-16T00:23:31;4.02;;;2.79;;
82787;SDS011;72529;51.786;4.662;2024-01-16T00:25:57;4.11;;;2.82;;
82787;SDS011;72529;51.786;4.662;2024-01-16T00:28:23;5.06;;;3.42;;
82787;SDS011;72529;51.786;4.662;2024-01-16T00:30:48;4.78;;;3.22;;
82787;SDS011;72529;51.786;4.662;2024-01-16T00:33:14;4.65;;;3.15;;
82787;SDS011;72529;51.786;4.662;2024-01-16T00:35:39;4.50;;;3.00;;
82787;SDS011;72529;51.786;4.662;2024-01-16T00:38:04;4.30;;;2.90;;
82787;SDS011;72529;51.786;4.662;2024-01-16T00:40:30;4.65;;;3.15;;
82787;SDS011;72529;51.786;4.662;2024-01-16T00:42:56;4.40;;;2.97;;
82787;SDS011;72529;51.786;4.662;2024-01-16T00:45:21;4.00;;;2.68;;
82787;SDS011;72529;51.786;4.662;2024-01-16T00:47:47;4.19;;;2.83;;
82787;SDS011;72529;51.786;4.662;2024-01-16T00:50:12;4.34;;;2.95;;
82787;SDS011;72529;51.786;4.662;2024-01-16T00:52:38;3.62;;;2.44;;
82787;SDS011;72529;51.786;4.662;2024-01-16T00:55:04;4.01;;;2.66;;
82787;SDS011;72529;51.786;4.662;2024-01-16T00:57:30;4.08;;;2.68;;
82787;SDS011;72529;51.786;4.662;2024-01-16T00:59:55;4.28;;;2.78;;
82787;SDS011;72529;51.786;4.662;2024-01-16T01:02:21;3.61;;;2.34;;
82787;SDS011;72529;51.786;4.662;2024-01-16T01:04:46;3.96;;;2.53;;
82787;SDS011;72529;51.786;4.662;2024-01-16T01:07:15;3.66;;;2.36;;
82787;SDS011;72529;51.786;4.662;2024-01-16T01:09:41;3.17;;;2.06;;
82787;SDS011;72529;51.786;4.662;2024-01-16T01:12:06;4.05;;;2.61;;
82787;SDS011;72529;51.786;4.662;2024-01-16T01:14:32;3.68;;;2.37;;
82787;SDS011;72529;51.786;4.662;2024-01-16T01:16:58;3.36;;;2.17;;
82787;SDS011;72529;51.786;4.662;2024-01-16T01:19:23;4.06;;;2.65;;
82787;SDS011;72529;51.786;4.662;2024-01-16T01:21:49;3.72;;;2.45;;
82787;SDS011;72529;51.786;4.662;2024-01-16T01:24:14;3.56;;;2.37;;
82787;SDS011;72529;51.786;4.662;2024-01-16T01:26:42;3.41;;;2.30;;
82787;SDS011;72529;51.786;4.662;2024-01-16T01:29:08;3.46;;;2.35;;
82787;SDS011;72529;51.786;4.662;2024-01-16T01:31:34;3.63;;;2.47;;
82787;SDS011;72529;51.786;4.662;2024-01-16T01:33:59;3.54;;;2.43;;
82787;SDS011;72529;51.786;4.662;2024-01-16T01:36:24;3.43;;;2.35;;
82787;SDS011;72529;51.786;4.662;2024-01-16T01:38:50;4.15;;;2.88;;
82787;SDS011;72529;51.786;4.662;2024-01-16T01:41:16;4.03;;;2.88;;
82787;SDS011;72529;51.786;4.662;2024-01-16T01:43:42;2.92;;;2.08;;
82787;SDS011;72529;51.786;4.662;2024-01-16T01:46:09;3.35;;;2.37;;
82787;SDS011;72529;51.786;4.662;2024-01-16T01:48:41;3.64;;;2.50;;
82787;SDS011;72529;51.786;4.662;2024-01-16T01:51:07;3.54;;;2.42;;
82787;SDS011;72529;51.786;4.662;2024-01-16T01:53:34;3.32;;;2.28;;
82787;SDS011;72529;51.786;4.662;2024-01-16T01:56:06;3.66;;;2.54;;
82787;SDS011;72529;51.786;4.662;2024-01-16T01:58:35;3.53;;;2.44;;
82787;SDS011;72529;51.786;4.662;2024-01-16T02:01:05;3.37;;;2.32;;
82787;SDS011;72529;51.786;4.662;2024-01-16T02:03:34;3.64;;;2.51;;
82787;SDS011;72529;51.786;4.662;2024-01-16T02:06:05;3.63;;;2.51;;
82787;SDS011;72529;51.786;4.662;2024-01-16T02:08:30;3.29;;;2.30;;
82787;SDS011;72529;51.786;4.662;2024-01-16T02:10:57;4.02;;;2.79;;
82787;SDS011;72529;51.786;4.662;2024-01-16T02:13:22;3.58;;;2.50;;
82787;SDS011;72529;51.786;4.662;2024-01-16T02:15:49;3.61;;;2.60;;
82787;SDS011;72529;51.786;4.662;2024-01-16T02:18:15;3.67;;;2.65;;
82787;SDS011;72529;51.786;4.662;2024-01-16T02:20:41;3.40;;;2.46;;
82787;SDS011;72529;51.786;4.662;2024-01-16T02:23:07;3.15;;;2.35;;
82787;SDS011;72529;51.786;4.662;2024-01-16T02:25:33;2.97;;;2.25;;
82787;SDS011;72529;51.786;4.662;2024-01-16T02:28:00;3.56;;;2.72;;
82787;SDS011;72529;51.786;4.662;2024-01-16T02:30:28;3.72;;;3.01;;
82787;SDS011;72529;51.786;4.662;2024-01-16T02:32:54;2.89;;;2.40;;
82787;SDS011;72529;51.786;4.662;2024-01-16T02:35:19;2.60;;;2.15;;
82787;SDS011;72529;51.786;4.662;2024-01-16T02:37:44;2.43;;;1.97;;
82787;SDS011;72529;51.786;4.662;2024-01-16T02:40:10;2.40;;;1.94;;
82787;SDS011;72529;51.786;4.662;2024-01-16T02:42:36;2.21;;;1.79;;
82787;SDS011;72529;51.786;4.662;2024-01-16T02:45:04;2.38;;;1.92;;
82787;SDS011;72529;51.786;4.662;2024-01-16T02:47:31;2.24;;;1.78;;
82787;SDS011;72529;51.786;4.662;2024-01-16T02:49:56;2.43;;;1.90;;
82787;SDS011;72529;51.786;4.662;2024-01-16T02:52:22;2.52;;;1.97;;
82787;SDS011;72529;51.786;4.662;2024-01-16T02:54:47;3.87;;;3.08;;
82787;SDS011;72529;51.786;4.662;2024-01-16T02:57:13;3.81;;;3.02;;
82787;SDS011;72529;51.786;4.662;2024-01-16T02:59:38;3.42;;;2.64;;
82787;SDS011;72529;51.786;4.662;2024-01-16T03:02:04;3.87;;;2.87;;
82787;SDS011;72529;51.786;4.662;2024-01-16T03:04:29;4.62;;;3.40;;
82787;SDS011;72529;51.786;4.662;2024-01-16T03:06:55;4.13;;;3.03;;
82787;SDS011;72529;51.786;4.662;2024-01-16T03:09:20;3.78;;;2.76;;
82787;SDS011;72529;51.786;4.662;2024-01-16T03:11:46;3.61;;;2.71;;
82787;SDS011;72529;51.786;4.662;2024-01-16T03:14:12;3.84;;;2.98;;
82787;SDS011;72529;51.786;4.662;2024-01-16T03:16:38;4.32;;;3.40;;
82787;SDS011;72529;51.786;4.662;2024-01-16T03:19:04;4.99;;;3.96;;
82787;SDS011;72529;51.786;4.662;2024-01-16T03:21:30;4.89;;;4.01;;
82787;SDS011;72529;51.786;4.662;2024-01-16T03:23:55;3.20;;;2.72;;
82787;SDS011;72529;51.786;4.662;2024-01-16T03:26:20;3.77;;;3.20;;
82787;SDS011;72529;51.786;4.662;2024-01-16T03:28:46;3.71;;;3.03;;
82787;SDS011;72529;51.786;4.662;2024-01-16T03:31:14;3.46;;;2.76;;
82787;SDS011;72529;51.786;4.662;2024-01-16T03:33:40;3.41;;;2.68;;
82787;SDS011;72529;51.786;4.662;2024-01-16T03:36:07;3.15;;;2.44;;
82787;SDS011;72529;51.786;4.662;2024-01-16T03:38:38;3.69;;;2.88;;
82787;SDS011;72529;51.786;4.662;2024-01-16T03:41:04;4.02;;;3.08;;
82787;SDS011;72529;51.786;4.662;2024-01-16T03:43:32;3.84;;;2.89;;
82787;SDS011;72529;51.786;4.662;2024-01-16T03:45:59;4.19;;;3.14;;
82787;SDS011;72529;51.786;4.662;2024-01-16T03:48:25;4.00;;;2.98;;
82787;SDS011;72529;51.786;4.662;2024-01-16T03:50:51;4.15;;;3.06;;
82787;SDS011;72529;51.786;4.662;2024-01-16T03:53:16;3.68;;;2.77;;
82787;SDS011;72529;51.786;4.662;2024-01-16T03:55:42;3.49;;;2.66;;
82787;SDS011;72529;51.786;4.662;2024-01-16T03:58:07;4.02;;;3.04;;
82787;SDS011;72529;51.786;4.662;2024-01-16T04:00:33;3.99;;;3.07;;
82787;SDS011;72529;51.786;4.662;2024-01-16T04:02:59;4.38;;;3.37;;
82787;SDS011;72529;51.786;4.662;2024-01-16T04:05:24;4.42;;;3.31;;
82787;SDS011;72529;51.786;4.662;2024-01-16T04:07:49;4.25;;;3.18;;
82787;SDS011;72529;51.786;4.662;2024-01-16T04:10:15;4.01;;;3.01;;
82787;SDS011;72529;51.786;4.662;2024-01-16T04:12:40;4.47;;;3.38;;
82787;SDS011;72529;51.786;4.662;2024-01-16T04:15:06;4.29;;;3.34;;
82787;SDS011;72529;51.786;4.662;2024-01-16T04:17:32;4.15;;;3.28;;
82787;SDS011;72529;51.786;4.662;2024-01-16T04:19:57;4.37;;;3.44;;
82787;SDS011;72529;51.786;4.662;2024-01-16T04:22:23;4.18;;;3.26;;
82787;SDS011;72529;51.786;4.662;2024-01-16T04:24:48;4.63;;;3.58;;
82787;SDS011;72529;51.786;4.662;2024-01-16T04:27:13;4.19;;;3.24;;
82787;SDS011;72529;51.786;4.662;2024-01-16T04:29:40;4.11;;;3.22;;
82787;SDS011;72529;51.786;4.662;2024-01-16T04:32:05;3.94;;;3.07;;
82787;SDS011;72529;51.786;4.662;2024-01-16T04:34:31;3.81;;;2.95;;
82787;SDS011;72529;51.786;4.662;2024-01-16T04:36:56;4.51;;;3.50;;
82787;SDS011;72529;51.786;4.662;2024-01-16T04:39:21;3.85;;;3.02;;
82787;SDS011;72529;51.786;4.662;2024-01-16T04:41:50;3.77;;;2.93;;
82787;SDS011;72529;51.786;4.662;2024-01-16T04:44:15;3.74;;;2.90;;
82787;SDS011;72529;51.786;4.662;2024-01-16T04:46:40;3.59;;;2.80;;
82787;SDS011;72529;51.786;4.662;2024-01-16T04:49:06;3.95;;;3.07;;
82787;SDS011;72529;51.786;4.662;2024-01-16T04:51:31;4.11;;;3.20;;
82787;SDS011;72529;51.786;4.662;2024-01-16T04:53:57;3.96;;;3.13;;
82787;SDS011;72529;51.786;4.662;2024-01-16T04:56:22;3.99;;;3.12;;
82787;SDS011;72529;51.786;4.662;2024-01-16T04:58:48;3.84;;;2.96;;
82787;SDS011;72529;51.786;4.662;2024-01-16T05:01:13;4.08;;;3.15;;
82787;SDS011;72529;51.786;4.662;2024-01-16T05:03:38;4.15;;;3.21;;
82787;SDS011;72529;51.786;4.662;2024-01-16T05:06:04;3.74;;;2.93;;
82787;SDS011;72529;51.786;4.662;2024-01-16T05:08:29;3.65;;;2.88;;
82787;SDS011;72529;51.786;4.662;2024-01-16T05:10:58;3.58;;;2.87;;
82787;SDS011;72529;51.786;4.662;2024-01-16T05:13:23;3.30;;;2.65;;
82787;SDS011;72529;51.786;4.662;2024-01-16T05:15:49;3.80;;;3.03;;
82787;SDS011;72529;51.786;4.662;2024-01-16T05:18:14;4.04;;;3.11;;
82787;SDS011;72529;51.786;4.662;2024-01-16T05:20:40;4.85;;;3.71;;
82787;SDS011;72529;51.786;4.662;2024-01-16T05:23:05;6.02;;;4.80;;
82787;SDS011;72529;51.786;4.662;2024-01-16T05:25:31;4.40;;;3.65;;
82787;SDS011;72529;51.786;4.662;2024-01-16T05:27:56;3.51;;;2.92;;
82787;SDS011;72529;51.786;4.662;2024-01-16T05:30:22;3.89;;;3.13;;
82787;SDS011;72529;51.786;4.662;2024-01-16T05:32:47;3.82;;;3.01;;
82787;SDS011;72529;51.786;4.662;2024-01-16T05:35:12;3.82;;;3.01;;
82787;SDS011;72529;51.786;4.662;2024-01-16T05:37:38;4.63;;;3.61;;
82787;SDS011;72529;51.786;4.662;2024-01-16T05:40:03;4.49;;;3.49;;
82787;SDS011;72529;51.786;4.662;2024-01-16T05:42:30;4.71;;;3.73;;
82787;SDS011;72529;51.786;4.662;2024-01-16T05:44:56;4.34;;;3.49;;
82787;SDS011;72529;51.786;4.662;2024-01-16T05:47:21;4.06;;;3.30;;
82787;SDS011;72529;51.786;4.662;2024-01-16T05:49:49;4.09;;;3.32;;
82787;SDS011;72529;51.786;4.662;2024-01-16T05:52:14;4.40;;;3.56;;
82787;SDS011;72529;51.786;4.662;2024-01-16T05:54:40;4.30;;;3.48;;
82787;SDS011;72529;51.786;4.662;2024-01-16T05:57:05;4.36;;;3.48;;
82787;SDS011;72529;51.786;4.662;2024-01-16T05:59:31;4.08;;;3.30;;
82787;SDS011;72529;51.786;4.662;2024-01-16T06:01:56;4.25;;;3.47;;
82787;SDS011;72529;51.786;4.662;2024-01-16T06:04:21;4.47;;;3.63;;
82787;SDS011;72529;51.786;4.662;2024-01-16T06:06:47;3.99;;;3.25;;
82787;SDS011;72529;51.786;4.662;2024-01-16T06:09:12;4.10;;;3.36;;
82787;SDS011;72529;51.786;4.662;2024-01-16T06:11:39;4.67;;;3.81;;
82787;SDS011;72529;51.786;4.662;2024-01-16T06:14:08;4.58;;;3.70;;
82787;SDS011;72529;51.786;4.662;2024-01-16T06:16:34;3.87;;;3.17;;
82787;SDS011;72529;51.786;4.662;2024-01-16T06:18:59;4.30;;;3.58;;
82787;SDS011;72529;51.786;4.662;2024-01-16T06:21:25;4.36;;;3.67;;
82787;SDS011;72529;51.786;4.662;2024-01-16T06:23:51;4.60;;;3.83;;
82787;SDS011;72529;51.786;4.662;2024-01-16T06:26:17;4.41;;;3.57;;
82787;SDS011;72529;51.786;4.662;2024-01-16T06:28:42;4.78;;;3.79;;
82787;SDS011;72529;51.786;4.662;2024-01-16T06:31:08;4.63;;;3.72;;
82787;SDS011;72529;51.786;4.662;2024-01-16T06:33:34;4.40;;;3.60;;
82787;SDS011;72529;51.786;4.662;2024-01-16T06:36:01;4.69;;;3.94;;
82787;SDS011;72529;51.786;4.662;2024-01-16T06:38:30;4.74;;;4.05;;
82787;SDS011;72529;51.786;4.662;2024-01-16T06:40:56;4.25;;;3.63;;
82787;SDS011;72529;51.786;4.662;2024-01-16T06:43:22;4.16;;;3.62;;
82787;SDS011;72529;51.786;4.662;2024-01-16T06:45:47;4.27;;;3.69;;
82787;SDS011;72529;51.786;4.662;2024-01-16T06:48:13;4.52;;;3.87;;
82787;SDS011;72529;51.786;4.662;2024-01-16T06:50:38;4.22;;;3.67;;
82787;SDS011;72529;51.786;4.662;2024-01-16T06:53:04;4.58;;;3.95;;
82787;SDS011;72529;51.786;4.662;2024-01-16T06:55:29;5.12;;;4.40;;
82787;SDS011;72529;51.786;4.662;2024-01-16T06:57:55;4.45;;;3.80;;
82787;SDS011;72529;51.786;4.662;2024-01-16T07:00:20;4.90;;;4.08;;
82787;SDS011;72529;51.786;4.662;2024-01-16T07:02:47;4.91;;;4.07;;
82787;SDS011;72529;51.786;4.662;2024-01-16T07:05:13;4.71;;;4.02;;
82787;SDS011;72529;51.786;4.662;2024-01-16T07:07:39;4.37;;;3.81;;
82787;SDS011;72529;51.786;4.662;2024-01-16T07:10:04;4.36;;;3.73;;
82787;SDS011;72529;51.786;4.662;2024-01-16T07:12:33;4.44;;;3.79;;
82787;SDS011;72529;51.786;4.662;2024-01-16T07:14:59;4.60;;;3.87;;
82787;SDS011;72529;51.786;4.662;2024-01-16T07:17:24;4.85;;;3.99;;
82787;SDS011;72529;51.786;4.662;2024-01-16T07:19:50;4.55;;;3.80;;
82787;SDS011;72529;51.786;4.662;2024-01-16T07:22:15;4.64;;;3.99;;
82787;SDS011;72529;51.786;4.662;2024-01-16T07:24:41;4.04;;;3.53;;
82787;SDS011;72529;51.786;4.662;2024-01-16T07:27:06;3.80;;;3.34;;
82787;SDS011;72529;51.786;4.662;2024-01-16T07:29:32;4.30;;;3.76;;
82787;SDS011;72529;51.786;4.662;2024-01-16T07:31:57;3.75;;;3.33;;
82787;SDS011;72529;51.786;4.662;2024-01-16T07:34:23;4.40;;;3.94;;
82787;SDS011;72529;51.786;4.662;2024-01-16T07:36:50;4.65;;;4.14;;
82787;SDS011;72529;51.786;4.662;2024-01-16T07:39:16;4.18;;;3.73;;
82787;SDS011;72529;51.786;4.662;2024-01-16T07:41:41;4.19;;;3.69;;
82787;SDS011;72529;51.786;4.662;2024-01-16T07:44:07;4.57;;;4.05;;
82787;SDS011;72529;51.786;4.662;2024-01-16T07:46:32;4.29;;;3.84;;
82787;SDS011;72529;51.786;4.662;2024-01-16T07:48:58;4.34;;;3.91;;
82787;SDS011;72529;51.786;4.662;2024-01-16T07:51:23;4.45;;;4.10;;
82787;SDS011;72529;51.786;4.662;2024-01-16T07:53:51;4.36;;;4.00;;
82787;SDS011;72529;51.786;4.662;2024-01-16T07:56:29;4.37;;;3.95;;
82787;SDS011;72529;51.786;4.662;2024-01-16T07:58:54;4.44;;;4.01;;
82787;SDS011;72529;51.786;4.662;2024-01-16T08:01:19;4.72;;;4.24;;
82787;SDS011;72529;51.786;4.662;2024-01-16T08:03:45;5.21;;;4.67;;
82787;SDS011;72529;51.786;4.662;2024-01-16T08:06:10;4.63;;;4.16;;
82787;SDS011;72529;51.786;4.662;2024-01-16T08:08:35;5.08;;;4.52;;
82787;SDS011;72529;51.786;4.662;2024-01-16T08:11:01;4.70;;;4.20;;
82787;SDS011;72529;51.786;4.662;2024-01-16T08:13:26;4.79;;;4.38;;
82787;SDS011;72529;51.786;4.662;2024-01-16T08:15:53;5.12;;;4.58;;
82787;SDS011;72529;51.786;4.662;2024-01-16T08:18:19;4.76;;;4.37;;
82787;SDS011;72529;51.786;4.662;2024-01-16T08:20:44;4.41;;;4.13;;
82787;SDS011;72529;51.786;4.662;2024-01-16T08:23:09;4.82;;;4.53;;
82787;SDS011;72529;51.786;4.662;2024-01-16T08:25:35;4.69;;;4.40;;
82787;SDS011;72529;51.786;4.662;2024-01-16T08:28:00;5.14;;;4.80;;
82787;SDS011;72529;51.786;4.662;2024-01-16T08:30:26;5.09;;;4.87;;
82787;SDS011;72529;51.786;4.662;2024-01-16T08:32:51;4.72;;;4.52;;
82787;SDS011;72529;51.786;4.662;2024-01-16T08:35:17;5.04;;;4.82;;
82787;SDS011;72529;51.786;4.662;2024-01-16T08:37:42;5.27;;;5.01;;
82787;SDS011;72529;51.786;4.662;2024-01-16T08:40:08;5.31;;;5.03;;
82787;SDS011;72529;51.786;4.662;2024-01-16T08:42:33;5.74;;;5.45;;
82787;SDS011;72529;51.786;4.662;2024-01-16T08:44:59;5.60;;;5.35;;
82787;SDS011;72529;51.786;4.662;2024-01-16T08:47:24;5.72;;;5.41;;
82787;SDS011;72529;51.786;4.662;2024-01-16T08:49:50;5.02;;;4.77;;
82787;SDS011;72529;51.786;4.662;2024-01-16T08:52:15;5.67;;;5.49;;
82787;SDS011;72529;51.786;4.662;2024-01-16T08:54:40;6.10;;;5.80;;
82787;SDS011;72529;51.786;4.662;2024-01-16T08:57:06;5.71;;;5.52;;
82787;SDS011;72529;51.786;4.662;2024-01-16T08:59:31;4.74;;;4.56;;
82787;SDS011;72529;51.786;4.662;2024-01-16T09:01:57;4.61;;;4.41;;
82787;SDS011;72529;51.786;4.662;2024-01-16T09:04:23;4.44;;;4.24;;
82787;SDS011;72529;51.786;4.662;2024-01-16T09:06:48;4.93;;;4.69;;
82787;SDS011;72529;51.786;4.662;2024-01-16T09:09:13;4.96;;;4.68;;
82787;SDS011;72529;51.786;4.662;2024-01-16T09:11:41;4.73;;;4.40;;
82787;SDS011;72529;51.786;4.662;2024-01-16T09:14:06;4.27;;;4.05;;
82787;SDS011;72529;51.786;4.662;2024-01-16T09:16:31;4.63;;;4.41;;
82787;SDS011;72529;51.786;4.662;2024-01-16T09:18:57;4.70;;;4.41;;
82787;SDS011;72529;51.786;4.662;2024-01-16T09:21:22;4.57;;;4.31;;
82787;SDS011;72529;51.786;4.662;2024-01-16T09:23:48;4.70;;;4.49;;
82787;SDS011;72529;51.786;4.662;2024-01-16T09:26:13;4.23;;;4.01;;
82787;SDS011;72529;51.786;4.662;2024-01-16T09:28:39;4.85;;;4.56;;
82787;SDS011;72529;51.786;4.662;2024-01-16T09:31:08;4.64;;;4.32;;
82787;SDS011;72529;51.786;4.662;2024-01-16T09:33:33;4.78;;;4.41;;
82787;SDS011;72529;51.786;4.662;2024-01-16T09:35:59;4.48;;;4.22;;
82787;SDS011;72529;51.786;4.662;2024-01-16T09:38:25;4.34;;;4.12;;
82787;SDS011;72529;51.786;4.662;2024-01-16T09:40:50;4.86;;;4.62;;
82787;SDS011;72529;51.786;4.662;2024-01-16T09:43:17;4.56;;;4.35;;
82787;SDS011;72529;51.786;4.662;2024-01-16T09:45:43;4.82;;;4.62;;
82787;SDS011;72529;51.786;4.662;2024-01-16T09:48:12;4.80;;;4.58;;
82787;SDS011;72529;51.786;4.662;2024-01-16T09:50:39;4.88;;;4.69;;
82787;SDS011;72529;51.786;4.662;2024-01-16T09:53:05;4.85;;;4.63;;
82787;SDS011;72529;51.786;4.662;2024-01-16T09:55:30;4.65;;;4.43;;
82787;SDS011;72529;51.786;4.662;2024-01-16T09:57:56;4.87;;;4.65;;
82787;SDS011;72529;51.786;4.662;2024-01-16T10:00:23;5.11;;;4.87;;
82787;SDS011;72529;51.786;4.662;2024-01-16T10:02:50;5.08;;;4.83;;
82787;SDS011;72529;51.786;4.662;2024-01-16T10:05:15;5.10;;;4.84;;
82787;SDS011;72529;51.786;4.662;2024-01-16T10:07:41;5.62;;;5.37;;
82787;SDS011;72529;51.786;4.662;2024-01-16T10:10:11;5.21;;;5.03;;
82787;SDS011;72529;51.786;4.662;2024-01-16T10:12:37;5.15;;;5.02;;
82787;SDS011;72529;51.786;4.662;2024-01-16T10:15:07;5.47;;;5.33;;
82787;SDS011;72529;51.786;4.662;2024-01-16T10:17:37;5.66;;;5.54;;
82787;SDS011;72529;51.786;4.662;2024-01-16T10:20:04;5.51;;;5.38;;
82787;SDS011;72529;51.786;4.662;2024-01-16T10:22:31;5.57;;;5.48;;
82787;SDS011;72529;51.786;4.662;2024-01-16T10:25:10;5.52;;;5.47;;
82787;SDS011;72529;51.786;4.662;2024-01-16T10:27:38;5.81;;;5.74;;
82787;SDS011;72529;51.786;4.662;2024-01-16T10:30:05;5.94;;;5.87;;
82787;SDS011;72529;51.786;4.662;2024-01-16T10:32:33;6.14;;;6.08;;
82787;SDS011;72529;51.786;4.662;2024-01-16T10:35:01;6.19;;;6.07;;
82787;SDS011;72529;51.786;4.662;2024-01-16T10:37:27;6.20;;;6.09;;
82787;SDS011;72529;51.786;4.662;2024-01-16T10:39:52;6.59;;;6.51;;
82787;SDS011;72529;51.786;4.662;2024-01-16T10:42:18;6.31;;;6.27;;
82787;SDS011;72529;51.786;4.662;2024-01-16T10:44:52;6.61;;;6.57;;
82787;SDS011;72529;51.786;4.662;2024-01-16T10:47:20;6.63;;;6.56;;
82787;SDS011;72529;51.786;4.662;2024-01-16T10:49:47;6.57;;;6.51;;
82787;SDS011;72529;51.786;4.662;2024-01-16T10:52:12;6.44;;;6.38;;
82787;SDS011;72529;51.786;4.662;2024-01-16T10:54:39;6.59;;;6.52;;
82787;SDS011;72529;51.786;4.662;2024-01-16T10:57:06;6.55;;;6.48;;
82787;SDS011;72529;51.786;4.662;2024-01-16T11:00:15;6.45;;;6.40;;
82787;SDS011;72529;51.786;4.662;2024-01-16T11:02:38;6.31;;;6.28;;
82787;SDS011;72529;51.786;4.662;2024-01-16T11:05:09;6.66;;;6.59;;
82787;SDS011;72529;51.786;4.662;2024-01-16T11:07:37;6.26;;;6.17;;
82787;SDS011;72529;51.786;4.662;2024-01-16T11:10:06;5.35;;;5.34;;
82787;SDS011;72529;51.786;4.662;2024-01-16T11:12:33;5.81;;;5.75;;
82787;SDS011;72529;51.786;4.662;2024-01-16T11:15:02;5.58;;;5.49;;
82787;SDS011;72529;51.786;4.662;2024-01-16T11:17:33;5.54;;;5.41;;
82787;SDS011;72529;51.786;4.662;2024-01-16T11:20:02;5.60;;;5.47;;
82787;SDS011;72529;51.786;4.662;2024-01-16T11:22:36;5.71;;;5.60;;
82787;SDS011;72529;51.786;4.662;2024-01-16T11:25:07;5.68;;;5.57;;
82787;SDS011;72529;51.786;4.662;2024-01-16T11:27:40;5.57;;;5.44;;
82787;SDS011;72529;51.786;4.662;2024-01-16T11:30:07;5.49;;;5.37;;
82787;SDS011;72529;51.786;4.662;2024-01-16T11:32:36;5.37;;;5.29;;
82787;SDS011;72529;51.786;4.662;2024-01-16T11:35:07;5.28;;;5.19;;
82787;SDS011;72529;51.786;4.662;2024-01-16T11:37:34;5.27;;;5.17;;
82787;SDS011;72529;51.786;4.662;2024-01-16T11:42:49;5.00;;;4.90;;
82787;SDS011;72529;51.786;4.662;2024-01-16T11:50:36;5.32;;;5.19;;
82787;SDS011;72529;51.786;4.662;2024-01-16T11:53:01;5.12;;;5.03;;
82787;SDS011;72529;51.786;4.662;2024-01-16T11:55:31;5.39;;;5.28;;
82787;SDS011;72529;51.786;4.662;2024-01-16T12:00:52;5.45;;;5.34;;
82787;SDS011;72529;51.786;4.662;2024-01-16T12:03:22;5.18;;;5.07;;
82787;SDS011;72529;51.786;4.662;2024-01-16T12:05:57;5.12;;;5.04;;
82787;SDS011;72529;51.786;4.662;2024-01-16T12:08:24;5.29;;;5.21;;
82787;SDS011;72529;51.786;4.662;2024-01-16T12:10:50;5.35;;;5.23;;
82787;SDS011;72529;51.786;4.662;2024-01-16T12:13:15;5.75;;;5.58;;
82787;SDS011;72529;51.786;4.662;2024-01-16T12:15:41;5.87;;;5.70;;
82787;SDS011;72529;51.786;4.662;2024-01-16T12:18:07;6.44;;;6.29;;
82787;SDS011;72529;51.786;4.662;2024-01-16T12:20:34;6.34;;;6.23;;
82787;SDS011;72529;51.786;4.662;2024-01-16T12:23:05;6.44;;;6.31;;
82787;SDS011;72529;51.786;4.662;2024-01-16T12:25:35;6.40;;;6.30;;
82787;SDS011;72529;51.786;4.662;2024-01-16T12:28:03;6.78;;;6.63;;
82787;SDS011;72529;51.786;4.662;2024-01-16T12:30:31;6.39;;;6.26;;
82787;SDS011;72529;51.786;4.662;2024-01-16T12:33:08;6.50;;;6.40;;
82787;SDS011;72529;51.786;4.662;2024-01-16T12:35:37;6.44;;;6.35;;
82787;SDS011;72529;51.786;4.662;2024-01-16T12:38:05;6.04;;;6.00;;
82787;SDS011;72529;51.786;4.662;2024-01-16T12:40:34;5.82;;;5.78;;
82787;SDS011;72529;51.786;4.662;2024-01-16T12:43:01;5.97;;;5.92;;
82787;SDS011;72529;51.786;4.662;2024-01-16T12:45:28;5.84;;;5.74;;
82787;SDS011;72529;51.786;4.662;2024-01-16T12:47:54;5.82;;;5.69;;
82787;SDS011;72529;51.786;4.662;2024-01-16T12:50:23;6.00;;;5.92;;
82787;SDS011;72529;51.786;4.662;2024-01-16T12:53:01;6.09;;;6.01;;
82787;SDS011;72529;51.786;4.662;2024-01-16T12:55:29;5.82;;;5.72;;
82787;SDS011;72529;51.786;4.662;2024-01-16T13:00:38;5.96;;;5.85;;
82787;SDS011;72529;51.786;4.662;2024-01-16T13:03:04;6.01;;;5.91;;
82787;SDS011;72529;51.786;4.662;2024-01-16T13:05:30;5.46;;;5.37;;
82787;SDS011;72529;51.786;4.662;2024-01-16T13:08:02;5.35;;;5.22;;
82787;SDS011;72529;51.786;4.662;2024-01-16T13:10:28;5.18;;;5.09;;
82787;SDS011;72529;51.786;4.662;2024-01-16T13:15:57;5.14;;;5.00;;
82787;SDS011;72529;51.786;4.662;2024-01-16T13:18:23;5.21;;;5.09;;
82787;SDS011;72529;51.786;4.662;2024-01-16T13:20:54;5.17;;;5.06;;
82787;SDS011;72529;51.786;4.662;2024-01-16T13:23:21;5.11;;;4.98;;
82787;SDS011;72529;51.786;4.662;2024-01-16T13:25:48;5.27;;;5.14;;
82787;SDS011;72529;51.786;4.662;2024-01-16T13:28:14;4.91;;;4.79;;
82787;SDS011;72529;51.786;4.662;2024-01-16T13:30:44;4.80;;;4.70;;
82787;SDS011;72529;51.786;4.662;2024-01-16T13:33:12;5.08;;;5.00;;
82787;SDS011;72529;51.786;4.662;2024-01-16T13:35:42;5.00;;;4.89;;
82787;SDS011;72529;51.786;4.662;2024-01-16T13:38:09;5.43;;;5.30;;
82787;SDS011;72529;51.786;4.662;2024-01-16T13:40:36;5.14;;;5.00;;
82787;SDS011;72529;51.786;4.662;2024-01-16T13:43:05;5.27;;;5.15;;
82787;SDS011;72529;51.786;4.662;2024-01-16T13:45:34;5.27;;;5.19;;
82787;SDS011;72529;51.786;4.662;2024-01-16T13:48:00;5.11;;;5.04;;
82787;SDS011;72529;51.786;4.662;2024-01-16T13:50:26;4.67;;;4.61;;
82787;SDS011;72529;51.786;4.662;2024-01-16T13:52:52;4.83;;;4.76;;
82787;SDS011;72529;51.786;4.662;2024-01-16T13:55:19;4.59;;;4.54;;
82787;SDS011;72529;51.786;4.662;2024-01-16T13:57:44;4.64;;;4.59;;
82787;SDS011;72529;51.786;4.662;2024-01-16T14:00:10;5.07;;;4.98;;
82787;SDS011;72529;51.786;4.662;2024-01-16T14:02:41;4.90;;;4.77;;
82787;SDS011;72529;51.786;4.662;2024-01-16T14:05:08;5.04;;;4.88;;
82787;SDS011;72529;51.786;4.662;2024-01-16T14:07:38;5.31;;;5.18;;
82787;SDS011;72529;51.786;4.662;2024-01-16T14:10:05;5.08;;;5.03;;
82787;SDS011;72529;51.786;4.662;2024-01-16T14:12:31;5.14;;;5.04;;
82787;SDS011;72529;51.786;4.662;2024-01-16T14:14:57;4.99;;;4.91;;
82787;SDS011;72529;51.786;4.662;2024-01-16T14:17:22;5.15;;;5.10;;
82787;SDS011;72529;51.786;4.662;2024-01-16T14:19:48;4.80;;;4.73;;
82787;SDS011;72529;51.786;4.662;2024-01-16T14:22:13;5.03;;;4.97;;
82787;SDS011;72529;51.786;4.662;2024-01-16T14:24:38;4.93;;;4.90;;
82787;SDS011;72529;51.786;4.662;2024-01-16T14:27:04;4.85;;;4.85;;
82787;SDS011;72529;51.786;4.662;2024-01-16T14:29:29;4.99;;;4.98;;
82787;SDS011;72529;51.786;4.662;2024-01-16T14:31:55;4.97;;;4.93;;
82787;SDS011;72529;51.786;4.662;2024-01-16T14:34:21;5.10;;;5.03;;
82787;SDS011;72529;51.786;4.662;2024-01-16T14:36:46;5.06;;;5.01;;
82787;SDS011;72529;51.786;4.662;2024-01-16T14:39:12;4.66;;;4.61;;
82787;SDS011;72529;51.786;4.662;2024-01-16T14:41:47;5.18;;;5.15;;
82787;SDS011;72529;51.786;4.662;2024-01-16T14:44:12;4.86;;;4.78;;
82787;SDS011;72529;51.786;4.662;2024-01-16T14:46:40;5.09;;;4.92;;
82787;SDS011;72529;51.786;4.662;2024-01-16T14:49:08;4.97;;;4.86;;
82787;SDS011;72529;51.786;4.662;2024-01-16T14:51:33;5.15;;;5.06;;
82787;SDS011;72529;51.786;4.662;2024-01-16T14:53:59;4.98;;;4.86;;
82787;SDS011;72529;51.786;4.662;2024-01-16T14:56:27;4.82;;;4.76;;
82787;SDS011;72529;51.786;4.662;2024-01-16T14:58:53;4.75;;;4.68;;
82787;SDS011;72529;51.786;4.662;2024-01-16T15:01:18;4.56;;;4.50;;